CheckWX is a tool to help pilots better visualize weather data.  It is not intended as a substitute for an official pre-flight weather briefing.

04:11:29 UTC

FNKU TAF
Kuito Airport
Kuito, Angola
TAF FNKU 262300Z 2700/2712 15005KT 9999 FEW020 TEMPO 2708/2712 09008KT CAVOK

May-27@
00:00 UTC

May-27 @ 00:00 UTC

May-27@
12:00 UTC

May-27 @ 12:00 UTC

TAF FNKU 262300Z 2700/2712 15005KT 9999 FEW020
Wind
  • 150° at 5 KTS
Cloud Levels
  • Few at 2,000' AGL

May-27@
08:00 UTC

May-27 @ 08:00 UTC

May-27@
12:00 UTC

May-27 @ 12:00 UTC

TEMPO 2708/2712 09008KT CAVOK

Temporary

Temporary Changes expected for less than half the time period

Wind
  • 090° at 8 KTS
Conditions
No significant weather
Cloud Levels
  • No significant clouds